createdAt,value
2017-11-30T00:02:26.353Z,85.03
2017-11-30T00:04:53.504Z,70.97
2017-11-30T00:07:19.939Z,65.97
2017-11-30T00:09:46.374Z,71.57
2017-11-30T00:12:12.808Z,78.03
2017-11-30T00:14:39.250Z,80.90
2017-11-30T00:17:05.679Z,76.03
2017-11-30T00:19:32.112Z,39.87
2017-11-30T00:21:59.264Z,45.17
2017-11-30T00:24:25.699Z,64.67
2017-11-30T00:26:52.134Z,50.57
2017-11-30T00:29:18.567Z,40.77
2017-11-30T00:31:45.001Z,33.00
2017-11-30T00:34:11.437Z,31.27
2017-11-30T00:36:37.871Z,49.30
2017-11-30T00:39:05.001Z,45.40
2017-11-30T00:41:31.443Z,42.93
2017-11-30T00:43:57.886Z,43.63
2017-11-30T00:46:24.325Z,52.13
2017-11-30T00:48:50.760Z,43.37
2017-11-30T00:51:17.195Z,51.20
2017-11-30T00:53:43.629Z,57.10
2017-11-30T00:56:10.886Z,65.40
2017-11-30T00:58:37.318Z,74.30
2017-11-30T01:01:03.753Z,73.23
2017-11-30T01:03:30.148Z,64.17
2017-11-30T01:05:56.612Z,59.30
2017-11-30T01:08:23.057Z,68.20
2017-11-30T01:10:49.594Z,51.67
2017-11-30T01:13:16.745Z,43.90
2017-11-30T01:15:43.186Z,50.70
2017-11-30T01:18:09.615Z,51.70
2017-11-30T01:20:36.050Z,52.17
2017-11-30T01:23:02.444Z,42.90
2017-11-30T01:25:28.818Z,44.00
2017-11-30T01:27:55.253Z,37.07
2017-11-30T01:30:22.404Z,41.47
2017-11-30T01:32:48.838Z,46.47
2017-11-30T01:35:15.281Z,46.53
2017-11-30T01:37:41.704Z,41.60
2017-11-30T01:40:08.148Z,54.90
2017-11-30T01:42:34.574Z,40.60
2017-11-30T01:45:01.010Z,39.47
2017-11-30T01:47:28.162Z,42.77
2017-11-30T01:49:54.594Z,40.70
2017-11-30T01:52:21.029Z,41.10
2017-11-30T01:54:47.463Z,44.90
2017-11-30T01:57:13.898Z,43.23
2017-11-30T01:59:40.435Z,32.30
2017-11-30T02:02:06.871Z,35.37
2017-11-30T02:04:34.125Z,31.03
2017-11-30T02:07:00.558Z,25.83
2017-11-30T02:09:26.993Z,34.37
2017-11-30T02:11:53.429Z,40.40
2017-11-30T02:14:19.863Z,30.40
2017-11-30T02:16:46.295Z,31.03
2017-11-30T02:19:12.733Z,39.70
2017-11-30T02:21:39.882Z,34.50
2017-11-30T02:24:06.316Z,35.53
2017-11-30T02:26:32.751Z,32.17
2017-11-30T02:28:59.190Z,27.80
2017-11-30T02:31:25.621Z,29.00
2017-11-30T02:33:52.054Z,30.90
2017-11-30T02:36:18.490Z,27.97
2017-11-30T02:38:45.743Z,25.07
2017-11-30T02:41:12.141Z,28.93
2017-11-30T02:43:38.612Z,27.50
2017-11-30T02:46:05.048Z,27.90
2017-11-30T02:48:31.583Z,25.73
2017-11-30T02:50:58.019Z,27.50
2017-11-30T02:53:24.455Z,22.77
2017-11-30T02:55:51.602Z,31.20
2017-11-30T02:58:18.019Z,23.67
2017-11-30T03:00:44.461Z,23.33
2017-11-30T03:03:10.909Z,25.90
2017-11-30T03:05:37.343Z,34.20
2017-11-30T03:08:03.777Z,28.23
2017-11-30T03:10:30.211Z,28.77
2017-11-30T03:12:57.368Z,29.23
2017-11-30T03:15:23.800Z,25.80
2017-11-30T03:17:50.232Z,23.90
2017-11-30T03:20:16.666Z,28.87
2017-11-30T03:22:43.101Z,33.73
2017-11-30T03:25:09.536Z,28.70
2017-11-30T03:27:35.970Z,24.60
2017-11-30T03:30:03.129Z,26.23
2017-11-30T03:32:29.558Z,25.20
2017-11-30T03:34:55.992Z,26.70
2017-11-30T03:37:22.431Z,25.27
2017-11-30T03:39:48.860Z,32.33
2017-11-30T03:42:15.297Z,35.03
2017-11-30T03:44:41.730Z,28.67
2017-11-30T03:47:08.882Z,23.70
2017-11-30T03:49:35.316Z,25.43
2017-11-30T03:52:01.751Z,23.30
2017-11-30T03:54:28.140Z,32.87
2017-11-30T03:56:54.702Z,27.03
2017-11-30T03:59:21.146Z,22.97
2017-11-30T04:01:47.587Z,26.53
2017-11-30T04:04:14.741Z,25.00
2017-11-30T04:06:41.178Z,24.57
2017-11-30T04:09:07.614Z,27.43
2017-11-30T04:11:34.045Z,26.60
2017-11-30T04:14:00.594Z,29.57
2017-11-30T04:16:27.015Z,34.67
2017-11-30T04:18:53.433Z,26.30
2017-11-30T04:21:20.698Z,38.80
2017-11-30T04:23:47.140Z,29.10
2017-11-30T04:26:13.574Z,35.87
2017-11-30T04:28:40.009Z,36.50
2017-11-30T04:31:06.443Z,26.77
2017-11-30T04:33:32.878Z,26.47
2017-11-30T04:35:59.312Z,37.40
2017-11-30T04:38:26.566Z,25.43
2017-11-30T04:40:53.002Z,33.77
2017-11-30T04:43:19.526Z,28.83
2017-11-30T04:45:45.969Z,35.10
2017-11-30T04:48:12.407Z,32.73
2017-11-30T04:50:38.843Z,22.27
2017-11-30T04:53:05.276Z,21.20
2017-11-30T04:55:32.428Z,17.90
2017-11-30T04:57:58.861Z,18.30
2017-11-30T05:00:25.296Z,17.80
2017-11-30T05:02:51.732Z,22.07
2017-11-30T05:05:18.124Z,17.07
2017-11-30T05:07:44.600Z,14.17
2017-11-30T05:10:11.037Z,14.37
2017-11-30T05:12:38.290Z,14.87
2017-11-30T05:15:04.724Z,14.03
2017-11-30T05:17:31.291Z,15.30
2017-11-30T05:19:57.784Z,20.53
2017-11-30T05:22:24.186Z,11.63
2017-11-30T05:24:50.666Z,15.90
2017-11-30T05:27:17.100Z,13.10
2017-11-30T05:29:44.252Z,13.37
2017-11-30T05:32:10.694Z,15.90
2017-11-30T05:34:37.121Z,12.67
2017-11-30T05:37:03.556Z,12.70
2017-11-30T05:39:29.991Z,13.43
2017-11-30T05:41:56.425Z,14.37
2017-11-30T05:44:22.859Z,14.03
2017-11-30T05:46:50.011Z,16.17
2017-11-30T05:49:16.446Z,32.70
2017-11-30T05:51:42.880Z,28.20
2017-11-30T05:54:09.299Z,25.93
2017-11-30T05:56:35.747Z,22.93
2017-11-30T05:59:02.185Z,14.03
2017-11-30T06:01:28.618Z,25.43
2017-11-30T06:03:55.771Z,16.57
2017-11-30T06:06:22.203Z,19.13
2017-11-30T06:08:48.844Z,15.40
2017-11-30T06:11:15.585Z,21.40
2017-11-30T06:13:42.021Z,21.33
2017-11-30T06:16:08.455Z,19.90
2017-11-30T06:18:35.813Z,17.80
2017-11-30T06:21:02.247Z,19.70
2017-11-30T06:23:28.680Z,18.20
2017-11-30T06:25:55.217Z,18.13
2017-11-30T06:28:21.656Z,20.90
2017-11-30T06:30:48.148Z,19.10
2017-11-30T06:33:14.625Z,23.57
2017-11-30T06:35:41.161Z,63.83
2017-11-30T06:38:08.211Z,61.73
2017-11-30T06:40:34.627Z,22.93
2017-11-30T06:43:01.072Z,26.57
2017-11-30T06:45:27.819Z,19.40
2017-11-30T06:47:54.254Z,20.83
2017-11-30T06:50:20.689Z,14.03
2017-11-30T06:52:47.226Z,9.90
2017-11-30T06:55:13.763Z,18.67
2017-11-30T06:57:40.812Z,13.43
2017-11-30T07:00:07.247Z,33.80
2017-11-30T07:02:33.681Z,16.30
2017-11-30T07:05:00.075Z,24.57
2017-11-30T07:07:27.266Z,13.90
2017-11-30T07:09:53.737Z,18.93
2017-11-30T07:12:20.242Z,38.43
2017-11-30T07:14:46.676Z,15.90
2017-11-30T07:17:13.618Z,147.07
2017-11-30T07:19:40.069Z,35.73
2017-11-30T07:22:09.908Z,10.30
2017-11-30T07:24:36.609Z,41.03
2017-11-30T07:27:03.043Z,23.83
2017-11-30T07:29:29.478Z,38.93
2017-11-30T07:31:55.912Z,17.37
2017-11-30T07:34:22.308Z,26.97
2017-11-30T07:36:48.782Z,22.37
2017-11-30T07:39:15.217Z,19.13
2017-11-30T07:41:41.654Z,28.47
2017-11-30T07:44:08.356Z,42.27
2017-11-30T07:46:35.038Z,27.63
2017-11-30T07:49:01.888Z,36.53
2017-11-30T07:51:28.275Z,43.10
2017-11-30T07:53:55.564Z,37.03
2017-11-30T07:56:21.999Z,19.33
2017-11-30T07:58:48.539Z,14.43
2017-11-30T08:01:15.995Z,17.53
2017-11-30T08:03:42.491Z,18.10
2017-11-30T08:06:08.966Z,16.57
2017-11-30T08:08:35.400Z,12.50
2017-11-30T08:11:02.145Z,12.60
2017-11-30T08:13:29.193Z,13.20
2017-11-30T08:15:56.931Z,13.77
2017-11-30T08:18:23.889Z,11.30
2017-11-30T08:20:50.851Z,10.03
2017-11-30T08:23:17.285Z,24.83
2017-11-30T08:25:44.335Z,13.30
2017-11-30T08:28:10.769Z,13.30
2017-11-30T08:30:37.305Z,17.10
2017-11-30T08:33:04.252Z,8.67
2017-11-30T08:35:30.801Z,14.70
2017-11-30T08:37:57.326Z,14.40
2017-11-30T08:40:24.067Z,24.43
2017-11-30T08:42:50.505Z,27.00
2017-11-30T08:45:17.042Z,11.60
2017-11-30T08:47:43.986Z,23.23
2017-11-30T08:50:11.240Z,17.97
2017-11-30T08:52:37.778Z,16.23
2017-11-30T08:55:04.519Z,15.73
2017-11-30T08:57:31.055Z,10.70
2017-11-30T08:59:58.930Z,12.30
2017-11-30T09:02:25.871Z,12.13
2017-11-30T09:04:52.367Z,11.70
2017-11-30T09:07:18.945Z,13.20
2017-11-30T09:09:45.995Z,13.30
2017-11-30T09:12:12.535Z,12.67
2017-11-30T09:14:39.067Z,16.83
2017-11-30T09:17:06.006Z,27.73
2017-11-30T09:19:32.449Z,29.27
2017-11-30T09:21:58.985Z,13.90
2017-11-30T09:24:25.526Z,15.60
2017-11-30T09:26:52.060Z,10.53
2017-11-30T09:29:18.498Z,10.67
2017-11-30T09:31:45.338Z,11.53
2017-11-30T09:34:11.878Z,13.00
2017-11-30T09:36:38.412Z,12.20
2017-11-30T09:39:05.359Z,15.70
2017-11-30T09:41:32.263Z,13.10
2017-11-30T09:43:58.741Z,14.23
2017-11-30T09:46:25.483Z,10.40
2017-11-30T09:48:52.088Z,14.80
2017-11-30T09:51:18.660Z,13.00
2017-11-30T09:53:45.297Z,159.27
2017-11-30T09:56:11.838Z,49.70
2017-11-30T09:58:38.371Z,11.30
2017-11-30T10:01:05.115Z,31.60
2017-11-30T10:03:31.755Z,18.70
2017-11-30T10:05:58.395Z,12.03
2017-11-30T10:08:25.031Z,12.13
2017-11-30T10:10:51.569Z,13.27
2017-11-30T10:13:18.063Z,9.57
2017-11-30T10:15:44.846Z,10.70
2017-11-30T10:18:11.654Z,9.33
2017-11-30T10:20:38.228Z,9.63
2017-11-30T10:23:05.292Z,8.30
2017-11-30T10:25:31.822Z,10.10
2017-11-30T10:27:58.352Z,12.20
2017-11-30T10:30:24.990Z,12.80
2017-11-30T10:32:51.526Z,10.73
2017-11-30T10:35:18.078Z,11.03
2017-11-30T10:37:44.704Z,19.00
2017-11-30T10:40:11.246Z,21.67
2017-11-30T10:42:37.783Z,9.57
2017-11-30T10:45:04.519Z,26.83
2017-11-30T10:47:31.057Z,20.00
2017-11-30T10:49:57.593Z,14.60
2017-11-30T10:52:24.232Z,17.90
2017-11-30T10:54:50.770Z,14.47
2017-11-30T10:57:17.307Z,17.43
2017-11-30T10:59:44.457Z,13.87
2017-11-30T11:02:10.998Z,15.40
2017-11-30T11:04:37.530Z,10.70
2017-11-30T11:07:04.478Z,16.63
2017-11-30T11:09:31.016Z,9.13
2017-11-30T11:11:57.553Z,15.40
2017-11-30T11:14:24.400Z,16.73
2017-11-30T11:16:50.934Z,14.53
2017-11-30T11:19:17.470Z,14.53
2017-11-30T11:21:44.464Z,16.10
2017-11-30T11:24:10.935Z,19.00
2017-11-30T11:26:37.602Z,13.10
2017-11-30T11:29:04.443Z,15.20
2017-11-30T11:31:30.974Z,13.70
2017-11-30T11:33:57.502Z,25.53
2017-11-30T11:36:24.358Z,13.20
2017-11-30T11:38:51.568Z,11.97
2017-11-30T11:41:20.992Z,14.90
2017-11-30T11:43:47.756Z,22.10
2017-11-30T11:46:14.292Z,15.03
2017-11-30T11:48:40.833Z,14.43
2017-11-30T11:51:07.572Z,11.67
2017-11-30T11:53:36.018Z,11.10
2017-11-30T11:56:02.492Z,13.60
2017-11-30T11:58:29.128Z,18.93
2017-11-30T12:00:55.664Z,18.60
2017-11-30T12:03:22.163Z,19.47
2017-11-30T12:05:48.841Z,12.93
2017-11-30T12:08:15.377Z,11.17
2017-11-30T12:10:41.915Z,14.20
2017-11-30T12:13:08.572Z,20.33
2017-11-30T12:15:35.093Z,19.03
2017-11-30T12:18:01.629Z,12.80
2017-11-30T12:20:28.580Z,10.53
2017-11-30T12:22:55.016Z,13.53
2017-11-30T12:25:21.444Z,13.83
2017-11-30T12:27:48.188Z,8.73
2017-11-30T12:30:14.623Z,12.07
2017-11-30T12:32:41.058Z,10.87
2017-11-30T12:35:07.490Z,20.50
2017-11-30T12:37:34.235Z,12.60
2017-11-30T12:40:00.674Z,14.30
2017-11-30T12:42:27.204Z,10.50
2017-11-30T12:44:54.089Z,11.87
2017-11-30T12:47:20.686Z,16.47
2017-11-30T12:49:47.121Z,10.20
2017-11-30T12:52:14.004Z,20.20
2017-11-30T12:54:40.501Z,15.87
2017-11-30T12:59:33.857Z,12.80
2017-11-30T13:02:00.216Z,11.30
2017-11-30T13:04:27.492Z,13.77
2017-11-30T13:06:54.515Z,11.40
2017-11-30T13:09:20.951Z,13.60
2017-11-30T13:11:47.387Z,11.30
2017-11-30T13:14:14.014Z,11.87
2017-11-30T13:16:40.429Z,11.57
2017-11-30T13:19:06.996Z,15.17
2017-11-30T13:21:33.840Z,15.67
2017-11-30T13:24:00.377Z,11.93
2017-11-30T13:26:27.022Z,11.43
2017-11-30T13:28:53.804Z,9.53
2017-11-30T13:31:20.500Z,16.43
2017-11-30T13:33:46.934Z,11.87
2017-11-30T13:36:13.882Z,10.40
2017-11-30T13:38:40.521Z,9.40
2017-11-30T13:41:07.162Z,9.37
2017-11-30T13:43:33.871Z,12.67
2017-11-30T13:46:00.442Z,11.80
2017-11-30T13:48:26.976Z,10.83
2017-11-30T13:50:53.924Z,13.87
2017-11-30T13:53:20.544Z,13.13
2017-11-30T13:55:47.100Z,12.90
2017-11-30T13:58:13.534Z,14.70
2017-11-30T14:00:40.275Z,10.80
2017-11-30T14:03:06.711Z,11.77
2017-11-30T14:05:33.087Z,15.23
2017-11-30T14:07:59.784Z,12.80
2017-11-30T14:10:26.219Z,10.97
2017-11-30T14:12:52.653Z,11.63
2017-11-30T14:15:19.339Z,12.73
2017-11-30T14:17:45.933Z,11.87
2017-11-30T14:20:12.809Z,12.83
2017-11-30T14:22:39.862Z,14.80
2017-11-30T14:25:06.753Z,9.87
2017-11-30T14:27:33.534Z,9.60
2017-11-30T14:30:00.226Z,11.70
2017-11-30T14:32:26.868Z,10.93
2017-11-30T14:34:53.329Z,16.43
2017-11-30T14:37:20.379Z,12.27
2017-11-30T14:39:47.121Z,11.90
2017-11-30T14:42:13.696Z,10.63
2017-11-30T14:44:41.235Z,29.43
2017-11-30T14:47:07.823Z,10.70
2017-11-30T14:49:34.301Z,10.33
2017-11-30T14:52:00.978Z,8.57
2017-11-30T14:54:27.449Z,11.07
2017-11-30T14:56:53.902Z,15.50
2017-11-30T14:59:20.850Z,11.77
2017-11-30T15:01:47.285Z,14.60
2017-11-30T15:04:13.821Z,13.03
2017-11-30T15:06:40.565Z,15.60
2017-11-30T15:09:07.905Z,12.47
2017-11-30T15:11:34.363Z,12.00
2017-11-30T15:14:00.993Z,17.17
2017-11-30T15:16:27.428Z,14.23
2017-11-30T15:18:54.477Z,14.67
2017-11-30T15:21:21.322Z,15.87
2017-11-30T15:23:48.133Z,11.77
2017-11-30T15:26:14.600Z,12.63
2017-11-30T15:28:41.444Z,12.53
2017-11-30T15:31:08.293Z,24.80
2017-11-30T15:33:34.927Z,25.00
2017-11-30T15:36:01.812Z,14.20
2017-11-30T15:38:28.411Z,16.00
2017-11-30T15:43:26.875Z,11.07
2017-11-30T15:45:53.317Z,13.90
2017-11-30T15:48:20.195Z,11.27
2017-11-30T15:50:46.652Z,10.63
2017-11-30T15:53:13.061Z,10.60
2017-11-30T15:55:39.813Z,12.67
2017-11-30T15:58:07.322Z,14.07
2017-11-30T16:00:33.758Z,12.47
2017-11-30T16:03:00.192Z,14.10
2017-11-30T16:05:26.555Z,11.50
2017-11-30T16:10:24.922Z,8.33
2017-11-30T16:12:51.284Z,11.07
2017-11-30T16:15:17.795Z,15.63
2017-11-30T16:17:44.229Z,14.30
2017-11-30T16:20:10.610Z,12.93
2017-11-30T16:22:37.136Z,16.20
2017-11-30T16:25:03.636Z,12.67
2017-11-30T16:27:30.513Z,16.10
2017-11-30T16:29:56.911Z,18.83
2017-11-30T16:32:23.602Z,10.70
2017-11-30T16:49:58.545Z,12.30
2017-11-30T16:52:24.880Z,14.07
2017-11-30T16:54:51.313Z,12.10
2017-11-30T16:57:17.747Z,14.93
2017-11-30T16:59:44.201Z,17.07
2017-11-30T17:02:10.515Z,15.50
2017-11-30T17:04:37.050Z,13.87
2017-11-30T17:07:03.499Z,15.40
2017-11-30T17:09:29.920Z,20.27
2017-11-30T17:11:56.376Z,16.77
2017-11-30T17:14:22.788Z,16.60
2017-11-30T17:16:49.224Z,16.87
2017-11-30T17:19:15.660Z,16.70
2017-11-30T17:21:42.093Z,20.03
2017-11-30T17:24:08.529Z,14.47
2017-11-30T17:26:34.967Z,20.00
2017-11-30T17:29:01.398Z,14.70
2017-11-30T17:31:27.729Z,12.93
2017-11-30T17:33:54.267Z,18.23
2017-11-30T17:36:20.700Z,16.93
2017-11-30T17:38:47.136Z,20.23
2017-11-30T17:41:13.571Z,21.23
2017-11-30T17:43:40.013Z,18.27
2017-11-30T17:46:06.440Z,16.80
2017-11-30T17:48:32.894Z,16.50
2017-11-30T17:50:59.308Z,21.47
2017-11-30T17:53:25.742Z,13.67
2017-11-30T17:55:52.177Z,18.30
2017-11-30T17:58:19.307Z,16.63
2017-11-30T18:00:45.665Z,16.00
2017-11-30T18:03:12.098Z,14.50
2017-11-30T18:05:38.532Z,20.43
2017-11-30T18:08:04.966Z,13.03
2017-11-30T18:10:31.401Z,16.40
2017-11-30T18:12:57.836Z,13.90
2017-11-30T18:15:24.986Z,13.70
2017-11-30T18:17:51.320Z,13.67
2017-11-30T18:20:17.740Z,20.23
2017-11-30T18:22:44.120Z,22.77
2017-11-30T18:25:10.475Z,16.90
2017-11-30T18:27:36.946Z,15.27
2017-11-30T18:30:03.359Z,18.23
2017-11-30T18:32:30.641Z,14.60
2017-11-30T18:34:57.077Z,12.17
2017-11-30T18:37:23.442Z,14.47
2017-11-30T18:39:49.780Z,14.60
2017-11-30T18:42:16.176Z,12.20
2017-11-30T18:44:42.507Z,13.20
2017-11-30T18:47:08.874Z,12.30
2017-11-30T18:49:36.094Z,10.90
2017-11-30T18:52:02.528Z,14.60
2017-11-30T18:54:28.962Z,13.07
2017-11-30T18:56:55.398Z,17.40
2017-11-30T18:59:21.831Z,12.33
2017-11-30T19:01:48.268Z,15.37
2017-11-30T19:04:14.703Z,15.33
2017-11-30T19:06:41.947Z,15.80
2017-11-30T19:09:08.390Z,16.83
2017-11-30T19:11:34.789Z,13.47
2017-11-30T19:14:01.275Z,12.30
2017-11-30T19:16:27.694Z,17.63
2017-11-30T19:18:54.128Z,16.07
2017-11-30T19:21:20.500Z,9.80
2017-11-30T19:23:47.830Z,14.13
2017-11-30T19:26:14.252Z,11.70
2017-11-30T19:28:40.686Z,15.20
2017-11-30T19:31:07.120Z,11.93
2017-11-30T19:33:33.553Z,19.30
2017-11-30T19:35:59.995Z,17.87
2017-11-30T19:38:26.524Z,13.37
2017-11-30T19:40:53.565Z,17.60
2017-11-30T19:43:19.943Z,11.70
2017-11-30T19:45:46.342Z,13.20
2017-11-30T19:48:12.778Z,14.47
2017-11-30T19:50:39.144Z,19.80
2017-11-30T19:53:05.542Z,14.03
2017-11-30T19:55:31.917Z,13.00
2017-11-30T19:57:59.232Z,19.80
2017-11-30T20:00:25.666Z,13.37
2017-11-30T20:02:52.101Z,18.73
2017-11-30T20:05:18.473Z,14.73
2017-11-30T20:07:44.866Z,13.90
2017-11-30T20:10:11.302Z,14.07
2017-11-30T20:12:37.737Z,20.90
2017-11-30T20:15:04.888Z,13.60
2017-11-30T20:17:31.322Z,15.03
2017-11-30T20:19:57.688Z,23.00
2017-11-30T20:22:24.063Z,18.40
2017-11-30T20:24:50.505Z,21.40
2017-11-30T20:27:16.958Z,19.57
2017-11-30T20:29:43.438Z,15.73
2017-11-30T20:32:10.632Z,17.83
2017-11-30T20:34:37.081Z,19.43
2017-11-30T20:37:03.516Z,18.77
2017-11-30T20:39:29.969Z,16.03
2017-11-30T20:41:56.388Z,17.20
2017-11-30T20:44:22.823Z,25.30
2017-11-30T20:46:49.256Z,17.63
2017-11-30T20:49:16.512Z,19.63
2017-11-30T20:51:42.943Z,23.70
2017-11-30T20:54:09.377Z,24.30
2017-11-30T20:56:35.709Z,26.30
2017-11-30T20:59:02.077Z,16.37
2017-11-30T21:01:28.468Z,16.13
2017-11-30T21:03:54.891Z,18.30
2017-11-30T21:06:21.997Z,26.97
2017-11-30T21:08:48.395Z,23.30
2017-11-30T21:11:14.829Z,20.43
2017-11-30T21:13:41.267Z,16.90
2017-11-30T21:16:07.701Z,18.87
2017-11-30T21:18:34.135Z,22.97
2017-11-30T21:21:00.567Z,29.03
2017-11-30T21:23:27.822Z,20.70
2017-11-30T21:25:54.263Z,22.60
2017-11-30T21:28:20.693Z,21.87
2017-11-30T21:30:47.128Z,21.27
2017-11-30T21:33:13.560Z,19.93
2017-11-30T21:35:39.994Z,22.47
2017-11-30T21:38:06.532Z,18.93
2017-11-30T21:40:33.683Z,17.13
2017-11-30T21:43:00.119Z,21.43
2017-11-30T21:45:26.450Z,18.50
2017-11-30T21:47:52.890Z,17.57
2017-11-30T21:50:19.319Z,16.13
2017-11-30T21:52:45.689Z,22.27
2017-11-30T21:55:12.085Z,18.63
2017-11-30T21:57:39.237Z,19.73
2017-11-30T22:00:05.673Z,20.17
2017-11-30T22:02:32.004Z,21.50
2017-11-30T22:04:58.374Z,20.17
2017-11-30T22:07:24.873Z,22.30
2017-11-30T22:09:51.308Z,20.87
2017-11-30T22:12:17.742Z,23.13
2017-11-30T22:14:44.894Z,23.20
2017-11-30T22:17:11.328Z,19.47
2017-11-30T22:19:37.763Z,22.10
2017-11-30T22:22:04.201Z,25.00
2017-11-30T22:24:30.678Z,27.80
2017-11-30T22:26:57.069Z,21.87
2017-11-30T22:29:23.502Z,27.73
2017-11-30T22:31:50.640Z,30.33
2017-11-30T22:34:17.087Z,22.23
2017-11-30T22:36:43.522Z,21.13
2017-11-30T22:39:09.956Z,21.70
2017-11-30T22:41:36.390Z,25.77
2017-11-30T22:44:02.827Z,21.40
2017-11-30T22:46:29.282Z,20.40
2017-11-30T22:48:56.387Z,20.93
2017-11-30T22:51:22.829Z,21.23
2017-11-30T22:53:49.325Z,16.87
2017-11-30T22:56:15.734Z,20.33
2017-11-30T22:58:42.085Z,22.43
2017-11-30T23:01:08.482Z,19.30
2017-11-30T23:03:34.918Z,20.13
2017-11-30T23:06:02.069Z,19.47
2017-11-30T23:08:28.503Z,22.00
2017-11-30T23:10:54.937Z,19.40
2017-11-30T23:13:21.265Z,14.23
2017-11-30T23:15:47.705Z,20.20
2017-11-30T23:18:14.140Z,22.63
2017-11-30T23:20:40.592Z,18.47
2017-11-30T23:23:07.706Z,19.57
2017-11-30T23:25:34.160Z,22.00
2017-11-30T23:28:00.530Z,17.90
2017-11-30T23:30:26.927Z,18.03
2017-11-30T23:32:53.361Z,16.00
2017-11-30T23:35:19.694Z,20.60
2017-11-30T23:37:46.127Z,17.30
2017-11-30T23:40:13.278Z,16.10
2017-11-30T23:42:39.697Z,17.23
2017-11-30T23:45:06.148Z,15.97
2017-11-30T23:47:32.520Z,18.73
2017-11-30T23:49:58.915Z,20.83
2017-11-30T23:52:25.281Z,15.60
2017-11-30T23:54:51.682Z,20.20
2017-11-30T23:57:18.836Z,19.13
2017-11-30T23:59:45.202Z,18.53
